Time;durP1;ratioP1;P1;durP2;ratioP2;P2;SDS_P1;SDS_P2;PMS_P1;PMS_P2;Temp;Humidity;BMP_temperature;BMP_pressure;BME280_temperature;BME280_humidity;BME280_pressure;Samples;Min_cycle;Max_cycle;Signal;HPM_P1;HPM_P2
2022/07/13 00:00:49;;;;;;;;;;;;;;;18.87;39.57;96282.28;5001644;28;19987;-66
2022/07/13 00:03:15;;;;;;;;;;;;;;;18.87;39.49;96282.28;4998613;28;20067;-66
2022/07/13 00:05:40;;;;;;;;;;;;;;;18.85;39.63;96281.66;5002575;28;20036;-66
2022/07/13 00:08:05;;;;;;;;;;;;;;;18.82;39.25;96286.47;5001565;28;19983;-65
2022/07/13 00:10:30;;;;;;;;;;;;;;;18.75;39.45;96279.44;5001670;28;19956;-66
2022/07/13 00:12:56;;;;;;;;;;;;;;;18.77;39.19;96280.88;5001347;28;20463;-66
2022/07/13 00:15:21;;;;;;;;;;;;;;;18.75;39.56;96282.97;5001242;28;20123;-65
2022/07/13 00:17:46;;;;;;;;;;;;;;;18.75;39.77;96279.44;4982879;28;20149;-66
2022/07/13 00:20:11;;;;;;;;;;;;;;;18.72;39.92;96267.22;5000674;28;19984;-66
2022/07/13 00:22:37;;;;;;;;;;;;;;;18.74;39.87;96265.13;5001282;28;20057;-65
2022/07/13 00:25:02;;;;;;;;;;;;;;;18.68;40.08;96269.53;5000634;28;19978;-64
2022/07/13 00:27:27;;;;;;;;;;;;;;;18.69;40.24;96263.09;5001208;28;19997;-65
2022/07/13 00:29:53;;;;;;;;;;;;;;;18.68;40.26;96268.69;5001165;28;20044;-66
2022/07/13 00:32:18;;;;;;;;;;;;;;;18.70;39.96;96263.91;5000614;28;20139;-66
2022/07/13 00:34:43;;;;;;;;;;;;;;;18.69;39.90;96257.69;5000631;28;20413;-65
2022/07/13 00:37:08;;;;;;;;;;;;;;;18.70;40.13;96266.63;5001879;28;19968;-66
2022/07/13 00:39:34;;;;;;;;;;;;;;;18.72;39.57;96261.81;5000607;28;20044;-66
2022/07/13 00:41:59;;;;;;;;;;;;;;;18.69;40.17;96262.25;5001440;28;20000;-65
2022/07/13 00:44:24;;;;;;;;;;;;;;;18.66;40.08;96257.31;5000884;28;20019;-65
2022/07/13 00:46:51;;;;;;;;;;;;;;;18.65;39.97;96259.16;5001066;28;20028;-66
2022/07/13 00:49:16;;;;;;;;;;;;;;;18.64;39.63;96256.69;5000343;28;20430;-65
2022/07/13 00:51:42;;;;;;;;;;;;;;;18.57;39.62;96256.69;5000704;28;19986;-66
2022/07/13 00:54:07;;;;;;;;;;;;;;;18.53;39.64;96250.06;5001189;28;20510;-66
2022/07/13 00:56:32;;;;;;;;;;;;;;;18.47;39.00;96246.34;5000387;28;19995;-65
2022/07/13 00:58:58;;;;;;;;;;;;;;;18.36;38.95;96247.81;4999888;28;19989;-66
2022/07/13 01:01:23;;;;;;;;;;;;;;;18.21;39.28;96252.63;5000728;28;20051;-66
2022/07/13 01:03:48;;;;;;;;;;;;;;;18.08;39.71;96251.63;5000558;28;19988;-66
2022/07/13 01:06:13;;;;;;;;;;;;;;;17.98;40.25;96249.38;5000766;28;19968;-66
2022/07/13 01:08:39;;;;;;;;;;;;;;;17.91;40.05;96245.88;4983422;28;20410;-66
2022/07/13 01:11:04;;;;;;;;;;;;;;;17.85;40.21;96249.38;4999976;28;20086;-65
2022/07/13 01:13:29;;;;;;;;;;;;;;;17.78;40.65;96244.81;4984164;28;19961;-68
2022/07/13 01:15:54;;;;;;;;;;;;;;;17.74;40.65;96240.91;5000420;28;19992;-65
2022/07/13 01:18:20;;;;;;;;;;;;;;;17.62;40.59;96234.50;5001316;28;20064;-65
2022/07/13 01:20:45;;;;;;;;;;;;;;;17.58;41.12;96234.09;5000169;28;19983;-65
2022/07/13 01:23:11;;;;;;;;;;;;;;;17.54;40.86;96233.66;4982993;28;20026;-66
2022/07/13 01:25:36;;;;;;;;;;;;;;;17.51;40.87;96231.38;5001068;28;20004;-66
2022/07/13 01:28:01;;;;;;;;;;;;;;;17.47;41.95;96227.44;5000315;28;20041;-64
2022/07/13 01:30:26;;;;;;;;;;;;;;;17.52;41.59;96229.53;5000813;28;19975;-65
2022/07/13 01:32:52;;;;;;;;;;;;;;;17.62;41.51;96229.09;5000718;28;20475;-64
2022/07/13 01:35:18;;;;;;;;;;;;;;;17.73;41.06;96219.56;5000328;28;20844;-65
2022/07/13 01:37:44;;;;;;;;;;;;;;;17.75;41.44;96220.19;4982432;28;20435;-64
2022/07/13 01:40:09;;;;;;;;;;;;;;;17.55;41.82;96210.28;4982929;28;20102;-64
2022/07/13 01:42:47;;;;;;;;;;;;;;;17.65;41.31;96221.44;4999969;28;20100;-64
2022/07/13 01:45:13;;;;;;;;;;;;;;;17.71;41.87;96218.97;4999298;28;20416;-66
2022/07/13 01:47:38;;;;;;;;;;;;;;;17.73;41.67;96219.56;5000818;28;20097;-65
2022/07/13 01:50:04;;;;;;;;;;;;;;;17.69;41.42;96218.31;5000785;28;19967;-65
2022/07/13 01:52:29;;;;;;;;;;;;;;;17.83;41.52;96211.06;5000278;28;20383;-66
2022/07/13 01:54:55;;;;;;;;;;;;;;;17.93;41.55;96211.50;5000033;28;20038;-65
2022/07/13 01:57:20;;;;;;;;;;;;;;;17.99;41.27;96207.97;4999705;28;20089;-65
2022/07/13 01:59:45;;;;;;;;;;;;;;;18.04;41.42;96210.00;4999470;28;19988;-64
2022/07/13 02:02:10;;;;;;;;;;;;;;;18.09;41.02;96203.97;4999952;28;19973;-66
2022/07/13 02:04:36;;;;;;;;;;;;;;;18.13;41.30;96202.53;5000064;28;20521;-66
2022/07/13 02:07:01;;;;;;;;;;;;;;;18.17;41.46;96201.91;4999293;28;20442;-64
2022/07/13 02:09:26;;;;;;;;;;;;;;;18.18;41.03;96203.53;5000979;28;20470;-66
2022/07/13 02:11:51;;;;;;;;;;;;;;;18.22;41.28;96197.72;5000163;28;19987;-65
2022/07/13 02:14:17;;;;;;;;;;;;;;;18.29;40.41;96202.03;5000525;28;20006;-66
2022/07/13 02:16:42;;;;;;;;;;;;;;;18.36;40.20;96206.59;4999876;28;19990;-66
2022/07/13 02:19:07;;;;;;;;;;;;;;;18.42;39.91;96201.16;4999437;28;20365;-65
2022/07/13 02:21:32;;;;;;;;;;;;;;;18.45;40.23;96194.50;5000006;28;19963;-65
2022/07/13 02:23:58;;;;;;;;;;;;;;;18.51;40.67;96196.34;4999547;28;19984;-65
2022/07/13 02:26:23;;;;;;;;;;;;;;;18.51;40.84;96199.06;4999571;28;20012;-66
2022/07/13 02:28:48;;;;;;;;;;;;;;;18.57;40.94;96194.66;4999041;28;19998;-64
2022/07/13 02:31:13;;;;;;;;;;;;;;;18.59;40.30;96194.50;4999016;28;20297;-66
2022/07/13 02:33:39;;;;;;;;;;;;;;;18.64;40.25;96200.06;4999805;28;20460;-66
2022/07/13 02:36:04;;;;;;;;;;;;;;;18.64;40.61;96194.66;4999600;28;19983;-60
2022/07/13 02:38:29;;;;;;;;;;;;;;;18.63;40.61;96191.13;5000778;28;20000;-59
2022/07/13 02:40:54;;;;;;;;;;;;;;;18.60;40.81;96191.59;5000216;28;19984;-63
2022/07/13 02:43:20;;;;;;;;;;;;;;;18.60;40.98;96196.97;5000281;28;19988;-65
2022/07/13 02:45:45;;;;;;;;;;;;;;;18.62;40.77;96197.56;5000404;28;19978;-64
2022/07/13 02:48:10;;;;;;;;;;;;;;;18.62;40.91;96188.63;5001949;28;19998;-65
2022/07/13 02:50:35;;;;;;;;;;;;;;;18.61;40.61;96184.31;4985797;28;20563;-64
2022/07/13 02:53:01;;;;;;;;;;;;;;;18.65;40.38;96188.22;5003711;28;19964;-65
2022/07/13 02:55:26;;;;;;;;;;;;;;;18.71;39.85;96181.97;5003418;28;20295;-64
2022/07/13 02:57:51;;;;;;;;;;;;;;;18.70;39.86;96183.03;5002820;28;20515;-59
2022/07/13 03:00:16;;;;;;;;;;;;;;;18.72;40.16;96177.38;5002404;28;19995;-64
2022/07/13 03:02:42;;;;;;;;;;;;;;;18.74;39.99;96178.00;5002916;28;19962;-65
2022/07/13 03:05:08;;;;;;;;;;;;;;;18.76;39.64;96184.84;5003556;28;20202;-63
2022/07/13 03:07:33;;;;;;;;;;;;;;;18.77;40.14;96181.09;5002681;28;20099;-65
2022/07/13 03:09:58;;;;;;;;;;;;;;;18.78;40.20;96180.06;5002586;28;19969;-64
2022/07/13 03:12:23;;;;;;;;;;;;;;;18.80;40.05;96174.47;5003062;28;20016;-65
2022/07/13 03:14:49;;;;;;;;;;;;;;;18.75;40.75;96179.66;5003170;28;20577;-65
2022/07/13 03:17:14;;;;;;;;;;;;;;;18.74;40.72;96176.16;5003445;28;20493;-64
2022/07/13 03:19:39;;;;;;;;;;;;;;;18.75;41.00;96161.63;5002386;28;20284;-64
2022/07/13 03:22:05;;;;;;;;;;;;;;;18.72;40.81;96155.81;5002561;28;20058;-66
2022/07/13 03:24:30;;;;;;;;;;;;;;;18.68;40.77;96155.44;5001999;28;20115;-66
2022/07/13 03:26:56;;;;;;;;;;;;;;;18.69;40.40;96147.13;5002172;28;20006;-64
2022/07/13 03:29:21;;;;;;;;;;;;;;;18.69;40.26;96146.28;5002852;28;20002;-65
2022/07/13 03:31:46;;;;;;;;;;;;;;;18.66;40.89;96152.13;5002677;28;19991;-65
2022/07/13 03:34:11;;;;;;;;;;;;;;;18.68;40.67;96152.72;5003382;28;19966;-66
2022/07/13 03:36:37;;;;;;;;;;;;;;;18.71;40.39;96149.59;5002548;28;20297;-66
2022/07/13 03:39:02;;;;;;;;;;;;;;;18.71;40.40;96152.31;5002719;28;20054;-65
2022/07/13 03:41:27;;;;;;;;;;;;;;;18.70;40.96;96147.97;5002853;28;20026;-65
2022/07/13 03:43:53;;;;;;;;;;;;;;;18.68;40.35;96142.78;5001582;28;20491;-66
2022/07/13 03:46:18;;;;;;;;;;;;;;;18.72;40.30;96145.88;5001639;28;19967;-66
2022/07/13 03:48:43;;;;;;;;;;;;;;;18.82;40.20;96150.78;5002297;28;20011;-65
2022/07/13 03:51:08;;;;;;;;;;;;;;;18.87;40.11;96150.94;5002135;28;20389;-66
2022/07/13 03:53:34;;;;;;;;;;;;;;;18.92;39.67;96145.72;5003110;28;19979;-66
2022/07/13 03:55:59;;;;;;;;;;;;;;;18.97;39.32;96150.47;5004066;28;20381;-65
2022/07/13 03:58:25;;;;;;;;;;;;;;;18.95;39.18;96150.69;5001032;28;20041;-66
2022/07/13 04:00:50;;;;;;;;;;;;;;;18.99;39.42;96147.53;4997716;28;19995;-66
2022/07/13 04:03:15;;;;;;;;;;;;;;;18.98;39.36;96149.44;5000895;28;19995;-65
2022/07/13 04:05:40;;;;;;;;;;;;;;;19.04;39.16;96145.84;5001476;28;19973;-65
2022/07/13 04:08:05;;;;;;;;;;;;;;;19.13;39.32;96148.25;5001528;28;20605;-66
2022/07/13 04:10:31;;;;;;;;;;;;;;;19.16;39.33;96145.13;5001052;28;21134;-65
2022/07/13 04:12:58;;;;;;;;;;;;;;;19.21;40.07;96145.31;5001885;28;19972;-65
2022/07/13 04:15:23;;;;;;;;;;;;;;;19.26;39.95;96141.91;4983447;28;20379;-65
2022/07/13 04:17:49;;;;;;;;;;;;;;;19.25;39.84;96146.50;5001180;28;20271;-66
2022/07/13 04:20:14;;;;;;;;;;;;;;;19.33;39.49;96143.56;5001065;28;19995;-66
2022/07/13 04:22:39;;;;;;;;;;;;;;;19.37;39.59;96151.22;5000964;28;19968;-66
2022/07/13 04:25:04;;;;;;;;;;;;;;;19.40;39.04;96153.47;5001591;28;20470;-65
2022/07/13 04:27:30;;;;;;;;;;;;;;;19.36;38.81;96161.19;5000931;28;20518;-65
2022/07/13 04:29:55;;;;;;;;;;;;;;;19.45;38.30;96159.84;5001361;28;19966;-65
2022/07/13 04:32:20;;;;;;;;;;;;;;;19.53;37.53;96158.75;5000171;28;19980;-64
2022/07/13 04:34:45;;;;;;;;;;;;;;;19.59;38.44;96148.94;5000896;28;20016;-66
2022/07/13 04:37:11;;;;;;;;;;;;;;;19.73;37.99;96149.63;5000796;28;19976;-66
2022/07/13 04:39:38;;;;;;;;;;;;;;;19.77;37.97;96149.97;5000469;28;20452;-67
2022/07/13 04:42:03;;;;;;;;;;;;;;;19.82;37.78;96150.16;5000094;28;20361;-66
2022/07/13 04:44:29;;;;;;;;;;;;;;;19.88;38.14;96154.63;5001622;28;19979;-66
2022/07/13 04:46:54;;;;;;;;;;;;;;;19.97;37.31;96158.75;5000688;28;20080;-66
2022/07/13 04:49:19;;;;;;;;;;;;;;;20.03;36.77;96154.31;5001333;28;19966;-65
2022/07/13 04:51:45;;;;;;;;;;;;;;;20.12;36.37;96148.59;5001030;28;19983;-66
2022/07/13 04:54:10;;;;;;;;;;;;;;;20.20;36.81;96159.91;5001440;28;19966;-66
2022/07/13 04:56:35;;;;;;;;;;;;;;;20.27;37.20;96159.84;5001088;28;20100;-66
2022/07/13 04:59:01;;;;;;;;;;;;;;;20.33;37.37;96153.50;5000179;28;19984;-66
2022/07/13 05:01:26;;;;;;;;;;;;;;;20.40;36.88;96158.00;5000370;28;20064;-66
2022/07/13 05:03:52;;;;;;;;;;;;;;;20.46;37.46;96151.66;5000271;28;20006;-66
2022/07/13 05:06:17;;;;;;;;;;;;;;;20.56;37.85;96148.44;5001280;28;19968;-65
2022/07/13 05:08:43;;;;;;;;;;;;;;;20.63;37.87;96151.09;5000143;28;19985;-66
2022/07/13 05:11:08;;;;;;;;;;;;;;;20.67;37.75;96158.47;4999679;28;19983;-65
2022/07/13 05:13:33;;;;;;;;;;;;;;;20.74;37.82;96153.81;5000319;28;20320;-65
2022/07/13 05:15:59;;;;;;;;;;;;;;;20.82;38.46;96155.38;5000142;28;20287;-65
2022/07/13 05:18:24;;;;;;;;;;;;;;;20.87;38.20;96147.38;5000396;28;19954;-66
2022/07/13 05:20:49;;;;;;;;;;;;;;;20.99;37.65;96143.88;4999703;28;19990;-66
2022/07/13 05:23:15;;;;;;;;;;;;;;;21.09;37.75;96140.59;4999787;28;19983;-66
2022/07/13 05:25:40;;;;;;;;;;;;;;;21.22;37.30;96143.09;5000386;28;19955;-66
2022/07/13 05:28:05;;;;;;;;;;;;;;;21.23;37.14;96135.78;4999897;28;19986;-66
2022/07/13 05:30:30;;;;;;;;;;;;;;;21.28;36.68;96144.03;4999746;28;19964;-66
2022/07/13 05:32:55;;;;;;;;;;;;;;;20.99;32.10;96136.59;5000284;28;20004;-66
2022/07/13 05:35:21;;;;;;;;;;;;;;;21.36;32.71;96137.47;4998629;28;20056;-66
2022/07/13 05:37:47;;;;;;;;;;;;;;;21.46;31.71;96143.13;4999828;28;20346;-66
2022/07/13 05:40:12;;;;;;;;;;;;;;;21.58;31.61;96140.41;4999018;28;20343;-66
2022/07/13 05:42:38;;;;;;;;;;;;;;;21.01;31.44;96139.06;4999283;28;19954;-66
2022/07/13 05:45:04;;;;;;;;;;;;;;;21.25;31.27;96136.38;4998405;28;19951;-67
2022/07/13 05:47:29;;;;;;;;;;;;;;;21.06;31.89;96135.66;4998641;28;19980;-67
2022/07/13 05:49:54;;;;;;;;;;;;;;;21.28;31.59;96138.63;4997023;28;19957;-66
2022/07/13 05:52:19;;;;;;;;;;;;;;;21.22;30.72;96142.25;4998020;28;20358;-65
2022/07/13 05:54:44;;;;;;;;;;;;;;;21.92;31.11;96144.41;4996990;28;19973;-67
2022/07/13 05:57:10;;;;;;;;;;;;;;;21.86;30.67;96146.97;4996022;28;20030;-66
2022/07/13 05:59:35;;;;;;;;;;;;;;;21.94;29.87;96139.56;4995134;28;20101;-66
2022/07/13 06:02:00;;;;;;;;;;;;;;;22.04;29.79;96137.06;4999172;28;20060;-66
2022/07/13 06:04:26;;;;;;;;;;;;;;;21.88;30.00;96139.44;4998495;28;19976;-66
2022/07/13 06:06:51;;;;;;;;;;;;;;;21.64;30.60;96134.06;4998649;28;20001;-66
2022/07/13 06:09:16;;;;;;;;;;;;;;;21.36;30.80;96138.31;4995423;28;20091;-66
2022/07/13 06:11:41;;;;;;;;;;;;;;;22.07;30.03;96139.31;4997593;28;20227;-66
2022/07/13 06:14:07;;;;;;;;;;;;;;;22.32;29.70;96143.59;4997087;28;20003;-67
2022/07/13 06:16:33;;;;;;;;;;;;;;;22.53;29.22;96139.41;4996480;28;19998;-66
2022/07/13 06:18:58;;;;;;;;;;;;;;;22.64;29.30;96140.41;4997754;28;20314;-66
2022/07/13 06:21:23;;;;;;;;;;;;;;;22.66;29.11;96146.44;4998767;28;19952;-66
2022/07/13 06:23:48;;;;;;;;;;;;;;;22.69;28.94;96141.56;4999338;28;20050;-66
2022/07/13 06:26:14;;;;;;;;;;;;;;;22.77;28.39;96144.72;4995088;28;20159;-67
2022/07/13 06:28:39;;;;;;;;;;;;;;;22.72;29.91;96154.66;4980580;28;19985;-67
2022/07/13 06:31:04;;;;;;;;;;;;;;;22.75;28.74;96151.47;4979510;28;20397;-66
2022/07/13 06:33:30;;;;;;;;;;;;;;;22.69;29.81;96152.44;4998239;28;19982;-66
2022/07/13 06:35:55;;;;;;;;;;;;;;;22.82;28.61;96140.44;4981771;28;19964;-61
2022/07/13 06:38:20;;;;;;;;;;;;;;;22.59;29.95;96147.63;4999675;28;20361;-65
2022/07/13 06:40:46;;;;;;;;;;;;;;;22.70;29.61;96144.03;4996642;28;19965;-64
2022/07/13 06:43:11;;;;;;;;;;;;;;;22.79;30.82;96142.59;4997946;28;20441;-64
2022/07/13 06:45:37;;;;;;;;;;;;;;;22.85;30.02;96139.97;4998652;28;19947;-64
2022/07/13 06:48:02;;;;;;;;;;;;;;;22.89;29.98;96151.97;4995079;28;19995;-64
2022/07/13 06:50:27;;;;;;;;;;;;;;;22.45;30.57;96153.34;4994179;28;20119;-63
2022/07/13 06:52:52;;;;;;;;;;;;;;;22.15;30.88;96160.63;4999191;28;19967;-64
2022/07/13 06:55:18;;;;;;;;;;;;;;;21.66;31.84;96162.78;4996981;28;19967;-63
2022/07/13 06:57:43;;;;;;;;;;;;;;;22.20;30.97;96162.59;4997309;28;19970;-64
2022/07/13 07:00:09;;;;;;;;;;;;;;;21.38;32.72;96157.84;4997331;28;19968;-64
2022/07/13 07:02:36;;;;;;;;;;;;;;;22.06;30.37;96156.63;4999313;28;19957;-64
2022/07/13 07:05:01;;;;;;;;;;;;;;;21.25;32.90;96141.81;4998757;28;20013;-65
2022/07/13 07:07:27;;;;;;;;;;;;;;;21.50;33.11;96133.47;4998824;28;19986;-64
2022/07/13 07:09:52;;;;;;;;;;;;;;;21.47;32.71;96133.94;4998854;28;19999;-65
2022/07/13 07:12:17;;;;;;;;;;;;;;;21.71;31.02;96138.50;4997676;28;20006;-66
2022/07/13 07:14:43;;;;;;;;;;;;;;;21.92;32.51;96142.50;4998763;28;20006;-66
2022/07/13 07:17:08;;;;;;;;;;;;;;;22.53;30.90;96141.28;4999385;28;19976;-66
2022/07/13 07:19:33;;;;;;;;;;;;;;;22.82;29.51;96140.44;4999817;28;20253;-67
2022/07/13 07:21:59;;;;;;;;;;;;;;;22.67;30.12;96141.81;4998898;28;19956;-66
2022/07/13 07:24:24;;;;;;;;;;;;;;;22.01;31.31;96132.97;4996041;28;20025;-66
2022/07/13 07:26:49;;;;;;;;;;;;;;;22.11;31.71;96131.50;4998172;28;20439;-66
2022/07/13 07:29:15;;;;;;;;;;;;;;;21.78;32.52;96141.91;4997325;28;19973;-65
2022/07/13 07:31:40;;;;;;;;;;;;;;;22.71;30.93;96136.75;4998783;28;19967;-66
2022/07/13 07:34:06;;;;;;;;;;;;;;;22.69;30.69;96145.13;4998240;28;20008;-66
2022/07/13 07:36:31;;;;;;;;;;;;;;;22.64;31.58;96148.56;4998800;28;20313;-66
2022/07/13 07:38:56;;;;;;;;;;;;;;;21.78;32.32;96147.34;4995654;28;20008;-67
2022/07/13 07:41:22;;;;;;;;;;;;;;;22.05;32.28;96138.72;4995544;28;19996;-66
2022/07/13 07:43:48;;;;;;;;;;;;;;;22.89;30.27;96139.25;4997628;28;19976;-65
2022/07/13 07:46:13;;;;;;;;;;;;;;;22.76;28.39;96148.50;4996975;28;19962;-66
2022/07/13 07:48:38;;;;;;;;;;;;;;;23.01;29.18;96143.78;4995099;28;20437;-66
2022/07/13 07:51:04;;;;;;;;;;;;;;;22.69;30.40;96141.56;4996801;28;20002;-66
2022/07/13 07:53:29;;;;;;;;;;;;;;;23.12;29.38;96131.97;4997407;28;20046;-66
2022/07/13 07:55:57;;;;;;;;;;;;;;;22.51;30.62;96141.50;5001211;28;20278;-66
2022/07/13 07:58:22;;;;;;;;;;;;;;;22.55;30.52;96131.03;4997711;28;20275;-67
2022/07/13 08:00:48;;;;;;;;;;;;;;;23.56;28.78;96131.31;4997951;28;19976;-67
2022/07/13 08:03:13;;;;;;;;;;;;;;;23.33;29.13;96124.22;4999068;28;19973;-66
2022/07/13 08:05:41;;;;;;;;;;;;;;;23.85;28.73;96130.38;4998862;28;20303;-66
2022/07/13 08:08:06;;;;;;;;;;;;;;;23.54;28.68;96119.91;4998676;28;19972;-66
2022/07/13 08:10:31;;;;;;;;;;;;;;;23.80;28.17;96112.09;4981353;28;19947;-66
2022/07/13 08:13:00;;;;;;;;;;;;;;;24.22;27.12;96122.66;4997186;28;19994;-65
2022/07/13 08:15:27;;;;;;;;;;;;;;;23.80;27.96;96127.59;4997293;28;20003;-65
2022/07/13 08:17:53;;;;;;;;;;;;;;;23.94;27.56;96122.63;4997084;28;19951;-66
2022/07/13 08:20:18;;;;;;;;;;;;;;;24.52;26.74;96129.56;4998276;28;19972;-65
2022/07/13 08:22:43;;;;;;;;;;;;;;;24.61;27.23;96128.00;4996355;28;20024;-64
2022/07/13 08:25:08;;;;;;;;;;;;;;;24.88;27.26;96129.09;4997602;28;19991;-66
2022/07/13 08:27:33;;;;;;;;;;;;;;;25.07;26.65;96130.38;4997271;28;20651;-63
2022/07/13 08:29:59;;;;;;;;;;;;;;;25.17;26.15;96128.81;4998131;28;20029;-59
2022/07/13 08:32:24;;;;;;;;;;;;;;;25.04;27.50;96138.22;4996561;28;20073;-63
2022/07/13 08:40:20;;;;;;;;;;;;;;;25.11;26.12;96121.69;4997892;28;20022;-68
2022/07/13 08:42:46;;;;;;;;;;;;;;;25.19;26.57;96116.56;4997385;28;20124;-69
2022/07/13 08:45:11;;;;;;;;;;;;;;;24.87;26.84;96122.81;4996201;28;19978;-68
2022/07/13 08:47:37;;;;;;;;;;;;;;;24.73;26.71;96121.59;4997399;28;19973;-68
2022/07/13 08:50:06;;;;;;;;;;;;;;;24.40;28.05;96119.63;4981890;28;19946;-68
2022/07/13 08:52:31;;;;;;;;;;;;;;;24.97;26.99;96119.38;4996322;28;20676;-67
2022/07/13 08:54:57;;;;;;;;;;;;;;;24.78;27.35;96117.00;4995738;28;20469;-65
2022/07/13 08:57:22;;;;;;;;;;;;;;;24.68;27.40;96112.28;4978265;28;19977;-66
2022/07/13 08:59:47;;;;;;;;;;;;;;;24.62;26.58;96116.06;4995945;28;20057;-65
2022/07/13 09:02:12;;;;;;;;;;;;;;;24.95;27.13;96116.13;4996959;28;20002;-66
2022/07/13 09:04:39;;;;;;;;;;;;;;;25.18;24.94;96108.66;4995480;28;20194;-66
2022/07/13 09:07:07;;;;;;;;;;;;;;;25.56;25.25;96104.03;4996445;28;20356;-64
2022/07/13 09:09:33;;;;;;;;;;;;;;;25.78;25.05;96116.69;4996986;28;20263;-64
2022/07/13 09:12:12;;;;;;;;;;;;;;;25.81;24.70;96112.63;4998910;28;20763;-63
2022/07/13 09:14:37;;;;;;;;;;;;;;;25.60;25.38;96115.22;4997832;28;19943;-71
2022/07/13 09:17:02;;;;;;;;;;;;;;;25.88;24.89;96117.81;4985016;28;19951;-73
2022/07/13 09:19:35;;;;;;;;;;;;;;;25.86;25.75;96120.81;4998905;28;20069;-71
2022/07/13 09:22:10;;;;;;;;;;;;;;;25.63;24.89;96128.34;5000742;28;19954;-71
2022/07/13 09:24:45;;;;;;;;;;;;;;;25.32;25.33;96119.94;4999843;28;19970;-73
2022/07/13 09:27:10;;;;;;;;;;;;;;;25.68;25.62;96119.34;4963403;28;20117;-71
2022/07/13 09:29:36;;;;;;;;;;;;;;;25.71;25.69;96119.66;4982998;28;20350;-73
2022/07/13 09:32:04;;;;;;;;;;;;;;;25.51;24.80;96111.34;5000534;28;19966;-72
2022/07/13 09:34:50;;;;;;;;;;;;;;;25.07;25.75;96105.03;5000399;28;19947;-73
2022/07/13 09:37:16;;;;;;;;;;;;;;;24.94;24.72;96112.56;4983238;28;19969;-73
2022/07/13 09:40:00;;;;;;;;;;;;;;;25.54;24.90;96113.56;5000525;28;20324;-71
2022/07/13 09:42:28;;;;;;;;;;;;;;;25.46;25.46;96109.44;5000001;28;19958;-69
2022/07/13 09:47:43;;;;;;;;;;;;;;;25.60;24.64;96116.03;4982610;28;20001;-72
2022/07/13 09:50:08;;;;;;;;;;;;;;;26.44;24.83;96119.94;4999996;28;19989;-72
2022/07/13 09:52:33;;;;;;;;;;;;;;;26.09;25.54;96119.59;5000626;28;19995;-71
2022/07/13 09:55:00;;;;;;;;;;;;;;;26.01;24.96;96130.16;5000795;28;19975;-72
2022/07/13 09:57:25;;;;;;;;;;;;;;;25.78;24.29;96115.84;4982044;28;20639;-72
2022/07/13 09:59:51;;;;;;;;;;;;;;;25.83;24.47;96124.09;4982910;28;20193;-72
2022/07/13 10:02:16;;;;;;;;;;;;;;;25.69;24.84;96127.28;4982311;28;19966;-71
2022/07/13 10:04:41;;;;;;;;;;;;;;;24.86;26.01;96133.97;4982868;28;19970;-71
2022/07/13 10:07:09;;;;;;;;;;;;;;;24.92;25.61;96133.78;4999301;28;19973;-72
2022/07/13 10:09:36;;;;;;;;;;;;;;;25.73;25.25;96122.94;4983173;28;19942;-73
2022/07/13 10:12:06;;;;;;;;;;;;;;;25.38;24.37;96121.59;4981871;28;20380;-72
2022/07/13 10:14:31;;;;;;;;;;;;;;;25.90;24.21;96123.84;5000533;28;20402;-71
2022/07/13 10:17:00;;;;;;;;;;;;;;;26.41;24.78;96133.34;4965988;28;19974;-72
2022/07/13 10:19:25;;;;;;;;;;;;;;;26.40;23.74;96129.78;4981695;28;19952;-73
2022/07/13 10:21:56;;;;;;;;;;;;;;;26.93;23.89;96119.78;4982602;28;19951;-73
2022/07/13 10:24:21;;;;;;;;;;;;;;;27.39;23.90;96124.44;4982104;28;19985;-72
2022/07/13 10:26:47;;;;;;;;;;;;;;;26.97;22.89;96124.44;4982319;28;20391;-73
2022/07/13 10:29:14;;;;;;;;;;;;;;;27.17;22.61;96111.91;5001095;28;20643;-73
2022/07/13 10:31:40;;;;;;;;;;;;;;;26.80;23.07;96119.22;4982671;28;20454;-71
2022/07/13 10:34:06;;;;;;;;;;;;;;;26.14;23.07;96109.78;4996834;28;19944;-71
2022/07/13 10:36:49;;;;;;;;;;;;;;;26.73;23.47;96110.50;4999344;28;19959;-72
2022/07/13 10:39:15;;;;;;;;;;;;;;;27.33;22.42;96112.69;4995081;28;19970;-72
2022/07/13 10:41:59;;;;;;;;;;;;;;;27.70;22.05;96112.66;4982540;28;20227;-72
2022/07/13 10:44:31;;;;;;;;;;;;;;;27.36;22.28;96111.34;4999494;28;19960;-72
2022/07/13 10:46:56;;;;;;;;;;;;;;;27.58;21.30;96111.00;4999595;28;20411;-72
2022/07/13 10:49:31;;;;;;;;;;;;;;;26.67;22.56;96112.38;4982303;28;19943;-73
2022/07/13 10:51:59;;;;;;;;;;;;;;;26.89;22.50;96114.06;4999191;28;19963;-72
2022/07/13 10:54:24;;;;;;;;;;;;;;;26.65;22.76;96108.28;4999940;28;20032;-71
2022/07/13 10:57:08;;;;;;;;;;;;;;;25.85;24.23;96108.25;4981845;28;20050;-73
2022/07/13 10:59:47;;;;;;;;;;;;;;;26.95;22.04;96107.50;4998891;28;20026;-73
2022/07/13 11:02:33;;;;;;;;;;;;;;;27.67;21.88;96097.63;4979680;28;19931;-72
2022/07/13 11:05:00;;;;;;;;;;;;;;;27.75;21.98;96097.06;4971310;28;20319;-73
2022/07/13 11:07:37;;;;;;;;;;;;;;;26.33;22.54;96107.38;4999383;28;20046;-72
2022/07/13 11:10:18;;;;;;;;;;;;;;;26.47;23.20;96097.59;5002557;28;20298;-72
2022/07/13 11:13:02;;;;;;;;;;;;;;;27.09;22.33;96080.44;5003120;28;20055;-72
2022/07/13 11:15:42;;;;;;;;;;;;;;;27.22;22.85;96106.41;4992136;28;20367;-73
2022/07/13 11:18:30;;;;;;;;;;;;;;;26.21;23.41;96083.06;4986028;28;20041;-72
2022/07/13 11:21:05;;;;;;;;;;;;;;;27.28;23.06;96092.75;4983381;28;19965;-73
2022/07/13 11:26:28;;;;;;;;;;;;;;;27.59;22.18;96087.22;4987955;28;19943;-73
2022/07/13 11:29:01;;;;;;;;;;;;;;;26.48;23.29;96084.78;4967735;28;19963;-72
2022/07/13 11:31:27;;;;;;;;;;;;;;;25.65;23.79;96087.16;4984853;28;20019;-72
2022/07/13 11:33:52;;;;;;;;;;;;;;;27.77;21.22;96072.97;5003093;28;19937;-72
2022/07/13 11:36:18;;;;;;;;;;;;;;;28.02;19.97;96071.25;5002052;28;20193;-72
2022/07/13 11:38:43;;;;;;;;;;;;;;;28.26;20.93;96072.50;5002788;28;19932;-72
2022/07/13 11:41:14;;;;;;;;;;;;;;;27.89;19.87;96074.56;5003240;28;19951;-72
2022/07/13 11:43:52;;;;;;;;;;;;;;;27.77;20.77;96070.22;4981511;28;20065;-71
2022/07/13 11:46:22;;;;;;;;;;;;;;;28.58;19.46;96067.66;4985091;28;20388;-72
2022/07/13 11:48:47;;;;;;;;;;;;;;;28.60;19.92;96070.91;5002682;28;20389;-71
2022/07/13 11:51:13;;;;;;;;;;;;;;;27.04;19.36;96071.44;5002049;28;20009;-71
2022/07/13 11:53:38;;;;;;;;;;;;;;;26.60;20.04;96066.25;5003034;28;19941;-72
2022/07/13 11:56:05;;;;;;;;;;;;;;;25.51;20.77;96065.03;4984372;28;19957;-72
2022/07/13 11:58:33;;;;;;;;;;;;;;;25.72;21.20;96063.22;5001860;28;19978;-73
2022/07/13 12:01:08;;;;;;;;;;;;;;;25.09;22.22;96065.56;4982141;28;19971;-75
2022/07/13 12:03:33;;;;;;;;;;;;;;;24.92;22.65;96070.34;4982756;28;20103;-75
2022/07/13 12:06:08;;;;;;;;;;;;;;;25.11;22.75;96057.13;4965618;28;20040;-75
2022/07/13 12:08:37;;;;;;;;;;;;;;;24.67;23.34;96064.38;4985562;28;20027;-75
2022/07/13 12:11:03;;;;;;;;;;;;;;;24.92;23.08;96048.56;4982883;28;19961;-75
2022/07/13 12:13:33;;;;;;;;;;;;;;;24.89;23.41;96060.78;4986321;28;19940;-75
2022/07/13 12:15:58;;;;;;;;;;;;;;;25.36;22.52;96047.50;4981826;28;20038;-75
2022/07/13 12:18:23;;;;;;;;;;;;;;;25.59;21.81;96051.72;4985300;28;19936;-76
2022/07/13 12:20:49;;;;;;;;;;;;;;;26.61;21.28;96037.03;5016289;28;19968;-75
2022/07/13 12:23:14;;;;;;;;;;;;;;;27.37;19.71;96031.78;5001707;28;19963;-75
2022/07/13 12:25:39;;;;;;;;;;;;;;;27.72;19.91;96026.50;5001775;28;19978;-75
2022/07/13 12:28:05;;;;;;;;;;;;;;;28.18;20.62;96024.69;4984049;28;19929;-75
2022/07/13 12:30:31;;;;;;;;;;;;;;;28.25;19.15;96025.16;4984666;28;20237;-75
2022/07/13 12:33:00;;;;;;;;;;;;;;;27.45;21.58;96030.41;5001820;28;19958;-75
2022/07/13 12:35:26;;;;;;;;;;;;;;;27.28;19.88;96021.69;4968268;28;20044;-75
2022/07/13 12:37:52;;;;;;;;;;;;;;;27.06;21.14;96023.66;5002182;28;19963;-71
2022/07/13 12:40:36;;;;;;;;;;;;;;;27.63;20.33;96020.78;4983750;28;19966;-74
2022/07/13 12:43:01;;;;;;;;;;;;;;;27.56;20.76;96030.38;5001637;28;19961;-71
2022/07/13 12:45:32;;;;;;;;;;;;;;;27.82;19.78;96016.63;4984299;28;19960;-71
2022/07/13 12:47:58;;;;;;;;;;;;;;;26.03;21.75;96016.19;5001633;28;20001;-74
2022/07/13 12:50:26;;;;;;;;;;;;;;;26.63;20.55;96013.03;5002202;28;19936;-73
2022/07/13 12:53:01;;;;;;;;;;;;;;;26.52;21.54;96000.44;5001572;28;19989;-73
2022/07/13 12:55:26;;;;;;;;;;;;;;;26.96;21.03;96013.56;5001982;28;20033;-73